Time;durP1;ratioP1;P1;durP2;ratioP2;P2;SDS_P1;SDS_P2;PMS_P1;PMS_P2;Temp;Humidity;BMP_temperature;BMP_pressure;BME280_temperature;BME280_humidity;BME280_pressure;Samples;Min_cycle;Max_cycle;Signal;HPM_P1;HPM_P2
2024/01/08 00:02:06;;;;;;;13.47;12.17;;;-1.60;1.00;;;;;;5096569;28;20177;-64
2024/01/08 00:04:32;;;;;;;14.33;11.60;;;-1.60;1.00;;;;;;5096156;28;20676;-64
2024/01/08 00:06:58;;;;;;;12.07;10.93;;;-1.60;1.00;;;;;;5095931;28;20205;-64
2024/01/08 00:09:24;;;;;;;12.70;11.50;;;-1.60;99.90;;;;;;5097279;28;20195;-65
2024/01/08 00:11:49;;;;;;;12.23;11.07;;;-1.60;99.90;;;;;;5096298;28;20185;-65
2024/01/08 00:14:15;;;;;;;13.57;11.40;;;-1.60;1.00;;;;;;5096306;28;20292;-65
2024/01/08 00:16:41;;;;;;;11.43;10.33;;;-1.60;1.00;;;;;;5096331;28;20205;-64
2024/01/08 00:19:06;;;;;;;20.20;11.77;;;-1.60;1.00;;;;;;5096289;28;20207;-64
2024/01/08 00:21:32;;;;;;;12.53;11.37;;;-1.60;1.00;;;;;;5095915;28;20609;-63
2024/01/08 00:23:58;;;;;;;12.47;11.37;;;-1.50;1.00;;;;;;5096508;28;20177;-64
2024/01/08 00:26:24;;;;;;;12.27;11.30;;;-1.60;1.00;;;;;;5095816;28;20200;-64
2024/01/08 00:28:50;;;;;;;12.33;11.23;;;-1.50;1.00;;;;;;5096543;28;20231;-64
2024/01/08 00:31:16;;;;;;;12.23;11.23;;;-1.60;1.00;;;;;;5096123;28;20189;-65
2024/01/08 00:33:42;;;;;;;12.50;11.40;;;-1.60;99.90;;;;;;5095750;28;20211;-65
2024/01/08 00:36:07;;;;;;;13.13;11.90;;;-1.60;1.00;;;;;;5095814;28;20264;-64
2024/01/08 00:38:33;;;;;;;12.03;11.03;;;-1.60;1.00;;;;;;5096133;28;20188;-64
2024/01/08 00:40:59;;;;;;;12.30;11.23;;;-1.60;99.90;;;;;;5095628;28;20552;-64
2024/01/08 00:43:25;;;;;;;12.93;11.63;;;-1.70;99.90;;;;;;5095295;28;20708;-64
2024/01/08 00:45:50;;;;;;;12.10;11.10;;;-1.70;99.90;;;;;;5095769;28;20265;-65
2024/01/08 00:48:16;;;;;;;13.20;12.07;;;-1.70;1.00;;;;;;5095718;28;20244;-64
2024/01/08 00:50:42;;;;;;;13.60;12.30;;;-1.70;1.00;;;;;;5095707;28;20199;-65
2024/01/08 00:53:09;;;;;;;12.77;11.67;;;-1.70;1.00;;;;;;5095509;28;20193;-64
2024/01/08 00:55:35;;;;;;;12.67;11.43;;;-1.70;1.00;;;;;;5095430;28;20231;-64
2024/01/08 00:58:01;;;;;;;12.63;11.50;;;-1.70;1.00;;;;;;5095252;28;20224;-65
2024/01/08 01:00:26;;;;;;;12.77;11.57;;;-1.70;1.00;;;;;;5095625;28;20185;-64
2024/01/08 01:02:52;;;;;;;13.40;12.20;;;-1.80;1.00;;;;;;5096016;28;20199;-64
2024/01/08 01:05:18;;;;;;;12.87;11.77;;;-1.70;1.00;;;;;;5095172;28;20178;-64
2024/01/08 01:07:45;;;;;;;14.30;12.77;;;-1.80;1.00;;;;;;5095616;28;20243;-65
2024/01/08 01:10:10;;;;;;;13.60;12.30;;;-1.80;1.00;;;;;;5095226;28;20185;-65
2024/01/08 01:12:36;;;;;;;14.10;12.80;;;-1.80;1.00;;;;;;5095627;28;20713;-65
2024/01/08 01:15:02;;;;;;;14.23;12.63;;;-1.80;1.00;;;;;;5095056;28;20207;-65
2024/01/08 01:17:28;;;;;;;14.63;13.13;;;-1.80;1.00;;;;;;5095081;28;20205;-64
2024/01/08 01:19:53;;;;;;;13.70;12.50;;;-1.90;1.00;;;;;;5094986;28;20260;-64
2024/01/08 01:22:19;;;;;;;15.80;12.73;;;-1.90;1.00;;;;;;5094383;28;20665;-64
2024/01/08 01:24:45;;;;;;;15.10;12.17;;;-1.90;1.00;;;;;;5094849;28;20193;-64
2024/01/08 01:27:11;;;;;;;14.00;12.70;;;-1.90;1.00;;;;;;5076776;28;20305;-64
2024/01/08 01:29:37;;;;;;;13.67;12.13;;;-1.90;1.00;;;;;;5076744;28;20192;-64
2024/01/08 01:32:04;;;;;;;14.83;13.53;;;-1.90;1.00;;;;;;5095272;28;20295;-64
2024/01/08 01:34:30;;;;;;;15.70;13.50;;;-1.90;1.00;;;;;;5095058;28;20200;-64
2024/01/08 01:36:56;;;;;;;14.27;12.93;;;-1.90;1.00;;;;;;5094755;28;20205;-64
2024/01/08 01:39:22;;;;;;;14.17;12.87;;;-1.90;1.00;;;;;;5094954;28;20278;-64
2024/01/08 01:41:51;;;;;;;14.87;13.20;;;-1.90;1.00;;;;;;5094395;28;20215;-64
2024/01/08 01:44:16;;;;;;;14.93;13.20;;;-1.90;1.00;;;;;;5094621;28;20193;-64
2024/01/08 01:46:45;;;;;;;13.40;12.10;;;-1.90;1.00;;;;;;5094872;28;20621;-64
2024/01/08 01:49:13;;;;;;;14.23;12.93;;;-1.80;1.00;;;;;;5076515;28;20189;-64
2024/01/08 01:51:41;;;;;;;17.23;13.57;;;-1.80;1.00;;;;;;5094647;28;20196;-64
2024/01/08 01:54:11;;;;;;;13.57;12.33;;;-1.80;1.00;;;;;;5094767;28;20209;-64
2024/01/08 01:56:37;;;;;;;18.13;13.87;;;-1.80;1.00;;;;;;5094026;28;20243;-64
2024/01/08 01:59:04;;;;;;;14.43;12.47;;;-1.80;1.00;;;;;;5094327;28;20522;-64
2024/01/08 02:01:31;;;;;;;16.13;12.80;;;-1.80;1.00;;;;;;5094445;28;20556;-64
2024/01/08 02:03:57;;;;;;;15.10;13.60;;;-1.80;1.00;;;;;;5094311;28;20185;-65
2024/01/08 02:06:26;;;;;;;16.83;13.77;;;-1.80;1.00;;;;;;5093606;28;20205;-64
2024/01/08 02:08:53;;;;;;;13.80;12.60;;;-1.80;1.00;;;;;;5093660;28;20230;-64
2024/01/08 02:11:20;;;;;;;14.70;13.30;;;-1.80;1.00;;;;;;5094033;28;20560;-64
2024/01/08 02:13:46;;;;;;;15.23;13.57;;;-1.80;1.00;;;;;;5094362;28;20197;-64
2024/01/08 02:16:12;;;;;;;15.27;13.67;;;-1.70;1.00;;;;;;5094271;28;20181;-64
2024/01/08 02:18:38;;;;;;;15.93;13.37;;;-1.70;1.00;;;;;;5094553;28;20238;-64
2024/01/08 02:21:04;;;;;;;15.80;14.20;;;-1.80;1.00;;;;;;5094100;28;20177;-64
2024/01/08 02:23:29;;;;;;;16.03;14.23;;;-1.80;1.00;;;;;;5094031;28;20543;-64
2024/01/08 02:25:56;;;;;;;15.80;14.20;;;-1.80;1.00;;;;;;5093733;28;20189;-65
2024/01/08 02:28:21;;;;;;;15.40;13.87;;;-1.80;1.00;;;;;;5076126;28;20211;-64
2024/01/08 02:30:47;;;;;;;16.20;13.47;;;-1.80;1.00;;;;;;5094130;28;20545;-64
2024/01/08 02:33:13;;;;;;;15.90;14.30;;;-1.80;1.00;;;;;;5093657;28;20207;-64
2024/01/08 02:35:39;;;;;;;14.63;13.07;;;-1.80;1.00;;;;;;5093961;28;20226;-65
2024/01/08 02:38:04;;;;;;;16.57;14.77;;;-1.80;1.00;;;;;;5093862;28;20201;-64
2024/01/08 02:40:30;;;;;;;15.10;13.60;;;-1.70;1.00;;;;;;5093614;28;20169;-64
2024/01/08 02:42:56;;;;;;;16.73;15.07;;;-1.70;1.00;;;;;;5094135;28;20181;-65
2024/01/08 02:45:22;;;;;;;15.60;14.00;;;-1.80;1.00;;;;;;5093677;28;20187;-64
2024/01/08 02:47:48;;;;;;;16.00;14.60;;;-1.80;1.00;;;;;;5093126;28;20201;-64
2024/01/08 02:50:13;;;;;;;16.40;13.60;;;-1.80;1.00;;;;;;5093704;28;20185;-65
2024/01/08 02:52:39;;;;;;;16.63;14.73;;;-1.80;1.00;;;;;;5094405;28;20195;-64
2024/01/08 02:55:05;;;;;;;16.13;14.43;;;-1.80;1.00;;;;;;5093721;28;20201;-64
2024/01/08 02:57:31;;;;;;;17.50;14.63;;;-1.80;1.00;;;;;;5093353;28;20266;-64
2024/01/08 02:59:57;;;;;;;15.83;14.23;;;-1.80;1.00;;;;;;5094202;28;20177;-64
2024/01/08 03:02:26;;;;;;;16.57;14.57;;;-1.80;1.00;;;;;;5093724;28;20193;-64
2024/01/08 03:04:52;;;;;;;18.43;14.73;;;-1.80;1.00;;;;;;5093957;28;20630;-64
2024/01/08 03:07:20;;;;;;;20.57;14.70;;;-1.80;12.50;;;;;;5094199;28;20204;-64
2024/01/08 03:09:47;;;;;;;17.60;15.77;;;-1.80;1.00;;;;;;5093685;28;20182;-64
2024/01/08 03:12:13;;;;;;;18.00;14.77;;;-1.80;19.20;;;;;;5075509;28;20192;-64
2024/01/08 03:14:39;;;;;;;17.40;14.87;;;-1.80;1.00;;;;;;5093336;28;20552;-65
2024/01/08 03:17:05;;;;;;;15.93;14.43;;;-1.80;11.20;;;;;;5093468;28;20666;-65
2024/01/08 03:19:31;;;;;;;19.83;15.07;;;-1.80;25.00;;;;;;5093612;28;20176;-64
2024/01/08 03:22:00;;;;;;;16.47;14.77;;;-1.80;50.60;;;;;;5093482;28;20185;-64
2024/01/08 03:24:26;;;;;;;17.20;15.50;;;-1.80;45.10;;;;;;5093354;28;20184;-65
2024/01/08 03:26:52;;;;;;;16.50;14.70;;;-1.80;40.20;;;;;;5093086;28;20595;-65
2024/01/08 03:29:18;;;;;;;18.00;14.70;;;-1.80;43.30;;;;;;5093157;28;20218;-64
2024/01/08 03:31:44;;;;;;;17.10;14.90;;;-1.80;72.80;;;;;;5093242;28;20258;-64
2024/01/08 03:34:10;;;;;;;16.70;14.87;;;-1.80;91.70;;;;;;5093153;28;20205;-64
2024/01/08 03:36:36;;;;;;;15.33;13.63;;;-1.80;63.60;;;;;;5094267;28;20211;-64
2024/01/08 03:39:02;;;;;;;16.73;14.93;;;-1.80;72.60;;;;;;5093942;28;20549;-65
2024/01/08 03:41:28;;;;;;;16.53;14.83;;;-1.80;84.40;;;;;;5095218;28;20178;-65
2024/01/08 03:43:53;;;;;;;16.30;14.70;;;-1.80;89.80;;;;;;5097460;28;20205;-64
2024/01/08 03:46:19;;;;;;;18.63;16.53;;;-1.80;99.90;;;;;;5097094;28;20215;-64
2024/01/08 03:48:45;;;;;;;19.03;14.80;;;-1.90;99.90;;;;;;5097178;28;20565;-64
2024/01/08 03:51:11;;;;;;;17.03;14.77;;;-1.80;99.90;;;;;;5097305;28;20239;-64
2024/01/08 03:53:37;;;;;;;16.87;15.20;;;-1.80;99.90;;;;;;5096863;28;20205;-64
2024/01/08 03:56:03;;;;;;;17.07;15.30;;;-1.90;99.90;;;;;;5096585;28;20249;-65
2024/01/08 03:58:29;;;;;;;16.23;14.63;;;-1.90;99.90;;;;;;5096664;28;20676;-64
2024/01/08 04:00:55;;;;;;;17.87;15.43;;;-1.90;99.90;;;;;;5097068;28;20239;-65
2024/01/08 04:03:21;;;;;;;17.37;15.57;;;-1.90;99.90;;;;;;5097263;28;20261;-64
2024/01/08 04:05:48;;;;;;;16.13;14.43;;;-1.90;99.90;;;;;;5096858;28;20311;-65
2024/01/08 04:08:14;;;;;;;20.07;16.30;;;-1.90;99.90;;;;;;5095872;28;20709;-65
2024/01/08 04:10:40;;;;;;;16.77;14.97;;;-1.90;99.90;;;;;;5096535;28;20637;-64
2024/01/08 04:13:06;;;;;;;17.97;15.70;;;-1.80;99.90;;;;;;5096482;28;20165;-64
2024/01/08 04:15:31;;;;;;;16.47;14.87;;;-1.90;99.90;;;;;;5096355;28;20239;-64
2024/01/08 04:17:57;;;;;;;17.07;15.57;;;-1.80;99.90;;;;;;5095889;28;20197;-64
2024/01/08 04:20:23;;;;;;;17.23;15.50;;;-1.80;99.90;;;;;;5095054;28;20280;-65
2024/01/08 04:22:50;;;;;;;18.00;15.30;;;-1.80;99.90;;;;;;5096546;28;20235;-64
2024/01/08 04:25:16;;;;;;;17.57;14.73;;;-1.80;99.90;;;;;;5096412;28;20185;-64
2024/01/08 04:27:45;;;;;;;15.93;14.27;;;-1.80;99.90;;;;;;5095129;28;20566;-64
2024/01/08 04:30:12;;;;;;;16.93;15.23;;;-1.80;99.90;;;;;;5096239;28;20173;-64
2024/01/08 04:32:37;;;;;;;17.60;14.57;;;-1.80;97.50;;;;;;5096085;28;20664;-65
2024/01/08 04:35:04;;;;;;;18.10;15.13;;;-1.90;77.20;;;;;;5096072;28;20209;-66
2024/01/08 04:37:30;;;;;;;19.17;14.80;;;-1.80;94.60;;;;;;5095781;28;20201;-64
2024/01/08 04:39:56;;;;;;;16.70;14.90;;;-1.80;99.90;;;;;;5096123;28;20185;-65
2024/01/08 04:42:21;;;;;;;16.90;15.10;;;-1.80;99.90;;;;;;5095598;28;20177;-65
2024/01/08 04:44:47;;;;;;;17.17;15.37;;;-1.80;97.60;;;;;;5095802;28;20177;-64
2024/01/08 04:47:13;;;;;;;17.03;15.23;;;-1.90;89.90;;;;;;5095892;28;20209;-64
2024/01/08 04:49:40;;;;;;;17.13;15.43;;;-1.90;92.00;;;;;;5095145;28;20192;-64
2024/01/08 04:52:06;;;;;;;17.07;15.33;;;-1.90;45.00;;;;;;5094566;28;20192;-64
2024/01/08 04:54:31;;;;;;;16.20;14.57;;;-1.90;8.70;;;;;;5095564;28;20205;-65
2024/01/08 04:56:58;;;;;;;20.03;15.33;;;-1.90;2.50;;;;;;5095284;28;20220;-65
2024/01/08 04:59:24;;;;;;;18.30;15.90;;;-1.90;12.00;;;;;;5094962;28;20190;-65
2024/01/08 05:01:50;;;;;;;16.80;15.00;;;-1.90;1.00;;;;;;5095654;28;20264;-65
2024/01/08 05:04:17;;;;;;;16.13;14.53;;;-1.90;17.40;;;;;;5095542;28;20193;-64
2024/01/08 05:06:44;;;;;;;17.77;15.87;;;-1.80;24.60;;;;;;5095297;28;20201;-65
2024/01/08 05:09:10;;;;;;;16.67;15.00;;;-1.90;20.00;;;;;;5095900;28;20185;-65
2024/01/08 05:11:36;;;;;;;16.57;14.87;;;-1.80;47.00;;;;;;5095303;28;20182;-64
2024/01/08 05:14:05;;;;;;;17.50;15.10;;;-1.80;65.10;;;;;;5095428;28;20205;-64
2024/01/08 05:16:32;;;;;;;17.63;15.87;;;-1.90;48.00;;;;;;5095833;28;20197;-65
2024/01/08 05:18:57;;;;;;;18.97;16.73;;;-1.80;33.50;;;;;;5095562;28;20185;-64
2024/01/08 05:21:23;;;;;;;19.77;15.70;;;-1.80;28.60;;;;;;5095045;28;20195;-64
2024/01/08 05:23:49;;;;;;;18.23;15.67;;;-1.80;24.70;;;;;;5095027;28;20196;-65
2024/01/08 05:26:15;;;;;;;17.27;15.47;;;-1.80;20.00;;;;;;5095567;28;20184;-64
2024/01/08 05:28:40;;;;;;;18.53;14.40;;;-1.80;26.60;;;;;;5095048;28;20189;-65
2024/01/08 05:31:06;;;;;;;16.80;15.20;;;-1.80;8.50;;;;;;5094409;28;20229;-65
2024/01/08 05:33:32;;;;;;;18.83;15.50;;;-1.80;21.30;;;;;;5094924;28;20280;-65
2024/01/08 05:35:58;;;;;;;19.40;15.33;;;-1.80;55.50;;;;;;5095873;28;20255;-64
2024/01/08 05:38:24;;;;;;;17.90;15.40;;;-1.80;77.70;;;;;;5095142;28;20181;-65
2024/01/08 05:40:51;;;;;;;17.43;15.60;;;-1.80;76.50;;;;;;5094495;28;20174;-62
2024/01/08 05:43:17;;;;;;;16.80;14.97;;;-1.80;71.70;;;;;;5095044;28;20268;-64
2024/01/08 05:45:42;;;;;;;18.17;15.77;;;-1.80;93.80;;;;;;5095252;28;20593;-65
2024/01/08 05:48:08;;;;;;;17.17;15.20;;;-1.70;76.90;;;;;;5094892;28;20564;-64
2024/01/08 05:50:34;;;;;;;18.60;15.47;;;-1.70;41.60;;;;;;5094665;28;20601;-65
2024/01/08 05:53:00;;;;;;;18.63;16.63;;;-1.70;10.90;;;;;;5094840;28;20751;-64
2024/01/08 05:55:26;;;;;;;24.93;19.47;;;-1.70;2.70;;;;;;5094888;28;20220;-64
2024/01/08 05:57:52;;;;;;;16.90;15.13;;;-1.70;1.00;;;;;;5094204;28;20341;-65
2024/01/08 06:00:18;;;;;;;16.87;14.87;;;-1.70;1.00;;;;;;5076346;28;20199;-64
2024/01/08 06:02:44;;;;;;;21.67;16.57;;;-1.70;4.20;;;;;;5094790;28;20562;-64
2024/01/08 06:05:11;;;;;;;19.40;15.67;;;-1.70;2.60;;;;;;5094412;28;20227;-65
2024/01/08 06:07:38;;;;;;;19.00;15.47;;;-1.70;1.00;;;;;;5094152;28;20391;-64
2024/01/08 06:10:04;;;;;;;17.23;15.20;;;-1.70;1.00;;;;;;5094222;28;20302;-64
2024/01/08 06:12:30;;;;;;;17.37;15.20;;;-1.70;1.00;;;;;;5093584;28;20189;-65
2024/01/08 06:14:56;;;;;;;18.23;16.30;;;-1.70;1.00;;;;;;5094151;28;20208;-64
2024/01/08 06:17:22;;;;;;;16.93;15.33;;;-1.70;18.30;;;;;;5093972;28;20268;-64
2024/01/08 06:19:48;;;;;;;16.40;14.80;;;-1.70;25.00;;;;;;5093786;28;20181;-64
2024/01/08 06:22:15;;;;;;;17.40;14.70;;;-1.70;2.60;;;;;;5093990;28;20199;-64
2024/01/08 06:24:41;;;;;;;18.77;15.27;;;-1.60;1.00;;;;;;5094174;28;20231;-65
2024/01/08 06:27:06;;;;;;;17.67;13.67;;;-1.70;4.80;;;;;;5093938;28;20208;-64
2024/01/08 06:29:32;;;;;;;16.27;14.60;;;-1.70;1.00;;;;;;5094224;28;20181;-65
2024/01/08 06:31:59;;;;;;;16.40;14.73;;;-1.70;1.00;;;;;;5094401;28;20597;-64
2024/01/08 06:34:25;;;;;;;16.43;14.70;;;-1.70;1.00;;;;;;5075918;28;20587;-64
2024/01/08 06:36:51;;;;;;;15.60;13.93;;;-1.70;1.00;;;;;;5093948;28;20197;-64
2024/01/08 06:39:17;;;;;;;15.23;13.80;;;-1.70;1.00;;;;;;5093907;28;20184;-64
2024/01/08 06:41:43;;;;;;;15.97;14.20;;;-1.70;1.00;;;;;;5093800;28;20539;-64
2024/01/08 06:44:09;;;;;;;16.53;13.30;;;-1.70;1.00;;;;;;5093632;28;20181;-64
2024/01/08 06:46:34;;;;;;;15.70;14.10;;;-1.60;1.00;;;;;;5094089;28;20210;-64
2024/01/08 06:49:00;;;;;;;14.97;13.37;;;-1.60;1.00;;;;;;5093703;28;20196;-65
2024/01/08 06:51:26;;;;;;;14.60;13.20;;;-1.60;1.00;;;;;;5075560;28;20196;-65
2024/01/08 06:53:52;;;;;;;14.97;13.63;;;-1.60;1.00;;;;;;5093662;28;20201;-64
2024/01/08 06:56:18;;;;;;;14.80;13.37;;;-1.60;1.00;;;;;;5093222;28;20241;-63
2024/01/08 06:58:44;;;;;;;14.87;13.37;;;-1.60;1.00;;;;;;5093556;28;20188;-64
2024/01/08 07:01:09;;;;;;;15.37;13.37;;;-1.60;1.00;;;;;;5093767;28;20173;-64
2024/01/08 07:03:35;;;;;;;14.63;13.23;;;-1.60;1.00;;;;;;5093952;28;20638;-64
2024/01/08 07:06:02;;;;;;;13.53;12.40;;;-1.60;1.00;;;;;;5093884;28;20185;-64
2024/01/08 07:08:28;;;;;;;14.20;12.83;;;-1.60;1.00;;;;;;5093723;28;20226;-64
2024/01/08 07:10:53;;;;;;;15.07;13.60;;;-1.60;1.00;;;;;;5093911;28;20189;-64
2024/01/08 07:13:19;;;;;;;14.57;13.17;;;-1.60;1.00;;;;;;5093369;28;20248;-64
2024/01/08 07:15:48;;;;;;;14.13;12.67;;;-1.70;1.00;;;;;;5095283;28;20158;-64
2024/01/08 07:18:16;;;;;;;13.63;12.33;;;-1.70;1.00;;;;;;5098028;28;20200;-64
2024/01/08 07:20:42;;;;;;;14.87;13.57;;;-1.70;1.00;;;;;;5078875;28;20225;-65
2024/01/08 07:23:13;;;;;;;14.10;12.80;;;-1.60;1.00;;;;;;5097725;28;20184;-66
2024/01/08 07:25:39;;;;;;;13.97;12.67;;;-1.70;1.00;;;;;;5097293;28;20170;-65
2024/01/08 07:28:07;;;;;;;14.63;13.23;;;-1.60;1.00;;;;;;5096961;28;20284;-64
2024/01/08 07:30:33;;;;;;;14.57;13.17;;;-1.60;1.00;;;;;;5097170;28;20199;-65
2024/01/08 07:32:59;;;;;;;13.83;12.53;;;-1.60;1.00;;;;;;5096669;28;20642;-65
2024/01/08 07:35:25;;;;;;;14.47;13.17;;;-1.60;1.00;;;;;;5096741;28;20646;-66
2024/01/08 07:37:55;;;;;;;14.57;13.17;;;-1.60;1.00;;;;;;5078520;28;20209;-65
2024/01/08 07:40:27;;;;;;;14.10;12.90;;;-1.60;1.00;;;;;;5097288;28;20213;-65
2024/01/08 07:42:54;;;;;;;15.43;13.73;;;-1.60;1.00;;;;;;5096903;28;20177;-65
2024/01/08 07:45:24;;;;;;;14.27;13.00;;;-1.60;1.00;;;;;;5096759;28;20550;-65
2024/01/08 07:47:50;;;;;;;16.07;14.17;;;-1.60;1.00;;;;;;5078633;28;20233;-65
2024/01/08 07:50:16;;;;;;;15.67;13.47;;;-1.60;1.00;;;;;;5096716;28;20180;-65
2024/01/08 07:52:42;;;;;;;17.07;13.90;;;-1.60;1.00;;;;;;5078481;28;20193;-64
2024/01/08 07:55:08;;;;;;;16.57;14.87;;;-1.60;1.00;;;;;;5096768;28;20571;-64
2024/01/08 07:57:34;;;;;;;15.27;13.23;;;-1.70;1.00;;;;;;5096354;28;20229;-65
2024/01/08 08:00:09;;;;;;;16.10;14.60;;;-1.60;1.00;;;;;;5078547;28;20181;-65
2024/01/08 08:02:36;;;;;;;16.10;14.40;;;-1.60;1.00;;;;;;5096234;28;20176;-65
2024/01/08 08:05:01;;;;;;;15.83;14.20;;;-1.60;1.00;;;;;;5096810;28;20571;-64
2024/01/08 08:07:28;;;;;;;15.63;14.33;;;-1.60;1.00;;;;;;5094751;28;20209;-64
2024/01/08 08:09:55;;;;;;;14.60;13.33;;;-1.60;1.00;;;;;;5096078;28;20185;-66
2024/01/08 08:12:21;;;;;;;15.77;14.17;;;-1.60;1.00;;;;;;5096472;28;20181;-65
2024/01/08 08:14:48;;;;;;;14.57;12.93;;;-1.60;1.00;;;;;;5096810;28;20236;-64
2024/01/08 08:17:14;;;;;;;14.43;13.07;;;-1.60;1.00;;;;;;5096790;28;20288;-64
2024/01/08 08:19:44;;;;;;;16.17;14.30;;;-1.60;1.00;;;;;;5096303;28;20184;-66
2024/01/08 08:22:13;;;;;;;15.00;13.53;;;-1.60;1.00;;;;;;5095570;28;20177;-65
2024/01/08 08:24:42;;;;;;;15.37;13.77;;;-1.50;1.00;;;;;;5095856;28;20193;-65
2024/01/08 08:27:09;;;;;;;14.40;12.87;;;-1.50;1.00;;;;;;5095667;28;20205;-66
2024/01/08 08:29:47;;;;;;;14.53;13.13;;;-1.60;1.00;;;;;;5096079;28;20181;-64
2024/01/08 08:32:13;;;;;;;14.43;13.00;;;-1.50;1.00;;;;;;5096315;28;20165;-64
2024/01/08 08:34:39;;;;;;;14.10;12.83;;;-1.60;1.00;;;;;;5095803;28;20201;-64
2024/01/08 08:37:08;;;;;;;14.77;13.33;;;-1.60;1.00;;;;;;5095535;28;20204;-64
2024/01/08 08:39:35;;;;;;;14.40;13.03;;;-1.50;1.00;;;;;;5095866;28;20200;-65
2024/01/08 08:42:00;;;;;;;14.03;12.67;;;-1.60;1.00;;;;;;5095711;28;20173;-64
2024/01/08 08:44:26;;;;;;;14.23;12.93;;;-1.50;1.00;;;;;;5095726;28;20181;-65
2024/01/08 08:46:52;;;;;;;13.77;12.57;;;-1.60;99.90;;;;;;5095521;28;20205;-65
2024/01/08 08:49:18;;;;;;;14.57;12.53;;;-1.50;1.00;;;;;;5095542;28;20619;-65
2024/01/08 08:51:44;;;;;;;13.70;12.40;;;-1.50;1.00;;;;;;5095758;28;20185;-65
2024/01/08 08:54:10;;;;;;;14.23;12.93;;;-1.50;99.90;;;;;;5095320;28;20216;-66
2024/01/08 08:56:36;;;;;;;12.57;11.47;;;-1.40;99.90;;;;;;5095350;28;20720;-65
2024/01/08 08:59:02;;;;;;;12.97;11.77;;;-1.40;99.90;;;;;;5095468;28;20219;-64
2024/01/08 09:01:28;;;;;;;12.77;11.60;;;-1.40;99.90;;;;;;5095581;28;20192;-65
2024/01/08 09:03:54;;;;;;;12.33;11.37;;;-1.40;99.90;;;;;;5076965;28;20193;-65
2024/01/08 09:06:23;;;;;;;12.63;11.53;;;-1.40;1.00;;;;;;5095205;28;20273;-64
2024/01/08 09:08:53;;;;;;;12.60;11.50;;;-1.40;1.00;;;;;;5095182;28;20260;-64
2024/01/08 09:11:19;;;;;;;12.87;11.47;;;-1.40;1.00;;;;;;5094856;28;20667;-65
2024/01/08 09:13:46;;;;;;;12.60;11.50;;;-1.40;99.00;;;;;;5094891;28;20677;-65
2024/01/08 09:16:14;;;;;;;13.07;11.87;;;-1.50;1.00;;;;;;5095138;28;20205;-65
2024/01/08 09:18:40;;;;;;;12.33;11.13;;;-1.50;99.90;;;;;;5095024;28;20555;-64
2024/01/08 09:21:10;;;;;;;12.37;11.20;;;-1.60;1.00;;;;;;5095023;28;20185;-65
2024/01/08 09:23:36;;;;;;;12.90;11.80;;;-1.60;1.00;;;;;;5095027;28;20188;-64
2024/01/08 09:26:04;;;;;;;13.10;11.87;;;-1.70;99.90;;;;;;5094849;28;20212;-65
2024/01/08 09:28:30;;;;;;;13.03;11.73;;;-1.70;99.90;;;;;;5094646;28;20189;-66
2024/01/08 09:30:56;;;;;;;11.97;10.97;;;-1.70;99.90;;;;;;5095343;28;20184;-65
2024/01/08 09:33:21;;;;;;;11.63;10.53;;;-1.80;32.50;;;;;;5095023;28;20646;-65
2024/01/08 09:35:48;;;;;;;11.70;10.80;;;-1.80;1.00;;;;;;5094835;28;20665;-64
2024/01/08 09:38:14;;;;;;;11.23;10.30;;;-1.80;99.90;;;;;;5094399;28;20621;-64
2024/01/08 09:40:43;;;;;;;11.67;10.80;;;-1.80;1.00;;;;;;5094295;28;20239;-64
2024/01/08 09:43:12;;;;;;;10.90;10.10;;;-1.90;1.00;;;;;;5094085;28;20181;-65
2024/01/08 09:46:04;;;;;;;11.83;10.83;;;-1.90;1.00;;;;;;5094491;28;20188;-65
2024/01/08 09:48:31;;;;;;;11.33;10.47;;;-1.80;1.00;;;;;;5094665;28;20165;-65
2024/01/08 09:51:00;;;;;;;11.40;10.50;;;-1.90;99.90;;;;;;5094599;28;20185;-64
2024/01/08 09:53:28;;;;;;;11.80;10.83;;;-1.80;1.00;;;;;;5094520;28;20177;-65
2024/01/08 09:55:54;;;;;;;11.43;10.60;;;-1.80;1.00;;;;;;5094152;28;20242;-64
2024/01/08 09:58:19;;;;;;;12.80;11.50;;;-1.80;99.90;;;;;;5093626;28;20289;-64
2024/01/08 10:00:45;;;;;;;11.20;10.40;;;-1.70;1.00;;;;;;5094063;28;20177;-65
2024/01/08 10:03:12;;;;;;;11.83;10.93;;;-1.60;1.00;;;;;;5093897;28;20227;-64
2024/01/08 10:05:39;;;;;;;12.57;11.57;;;-1.60;1.00;;;;;;5092793;28;20692;-64
2024/01/08 10:08:08;;;;;;;11.10;10.10;;;-1.60;1.00;;;;;;5094245;28;20204;-64
2024/01/08 10:10:34;;;;;;;11.57;10.47;;;-1.50;1.00;;;;;;5075988;28;20181;-64
2024/01/08 10:13:01;;;;;;;11.63;10.73;;;-1.50;99.90;;;;;;5093890;28;20181;-65
2024/01/08 10:15:29;;;;;;;11.50;10.40;;;-1.40;8.30;;;;;;5094020;28;20196;-64
2024/01/08 10:17:59;;;;;;;11.10;10.30;;;-1.30;1.00;;;;;;5093772;28;20623;-64
2024/01/08 10:20:25;;;;;;;11.87;10.97;;;-1.30;11.50;;;;;;5094159;28;20179;-64
2024/01/08 10:23:08;;;;;;;11.33;10.33;;;-1.30;1.00;;;;;;5094777;28;20544;-63
2024/01/08 10:25:38;;;;;;;11.70;10.60;;;-1.30;1.00;;;;;;5093882;28;20244;-63
2024/01/08 10:28:13;;;;;;;11.70;10.80;;;-1.30;99.90;;;;;;5093524;28;20217;-63
2024/01/08 10:30:40;;;;;;;11.83;10.83;;;-1.20;1.00;;;;;;5094565;28;20176;-63
2024/01/08 10:33:07;;;;;;;11.73;10.73;;;-1.10;1.00;;;;;;5094066;28;20255;-64
2024/01/08 10:35:39;;;;;;;11.87;10.87;;;-1.00;1.00;;;;;;5093640;28;20208;-64
2024/01/08 10:38:05;;;;;;;11.17;10.17;;;-0.90;99.90;;;;;;5094597;28;20551;-63
2024/01/08 10:40:31;;;;;;;11.27;10.47;;;-0.80;1.00;;;;;;5093781;28;20161;-63
2024/01/08 10:42:57;;;;;;;12.07;11.07;;;-0.70;1.00;;;;;;5093617;28;20219;-64
2024/01/08 10:45:23;;;;;;;11.10;10.30;;;-0.70;1.00;;;;;;5094104;28;20230;-64
2024/01/08 10:48:16;;;;;;;11.67;10.67;;;-0.60;1.00;;;;;;5093877;28;20218;-63
2024/01/08 10:50:45;;;;;;;13.47;11.00;;;-0.70;1.00;;;;;;5095567;28;20177;-63
2024/01/08 10:53:22;;;;;;;12.43;11.33;;;-0.60;99.90;;;;;;5098245;28;20259;-63
2024/01/08 10:55:51;;;;;;;11.73;10.87;;;-0.50;1.00;;;;;;5098215;28;20165;-63
2024/01/08 10:58:29;;;;;;;11.83;10.87;;;-0.40;51.90;;;;;;5097385;28;20311;-65
2024/01/08 11:00:56;;;;;;;12.07;10.90;;;-0.30;99.90;;;;;;5079886;28;20180;-64
2024/01/08 11:03:22;;;;;;;12.30;11.20;;;-0.20;1.00;;;;;;5097876;28;20572;-63
2024/01/08 11:05:51;;;;;;;11.80;10.90;;;-0.10;66.90;;;;;;5097862;28;20173;-64
2024/01/08 11:08:20;;;;;;;11.30;10.43;;;0.00;99.90;;;;;;5097870;28;20579;-64
2024/01/08 11:10:46;;;;;;;11.43;10.30;;;-0.10;99.90;;;;;;5097351;28;20634;-65
2024/01/08 11:13:13;;;;;;;13.20;10.67;;;0.00;1.00;;;;;;5096651;28;20184;-64
2024/01/08 11:15:41;;;;;;;11.70;10.70;;;-0.20;99.90;;;;;;5097692;28;20229;-64
2024/01/08 11:18:26;;;;;;;11.00;10.10;;;-0.10;1.00;;;;;;5097541;28;20220;-64
2024/01/08 11:20:55;;;;;;;10.90;10.07;;;-0.10;99.90;;;;;;5097517;28;20165;-64
2024/01/08 11:23:40;;;;;;;10.93;10.00;;;-0.10;99.90;;;;;;5079142;28;20620;-64
2024/01/08 11:26:22;;;;;;;10.77;9.87;;;-0.10;1.00;;;;;;5096876;28;20170;-64
2024/01/08 11:29:05;;;;;;;11.43;10.53;;;0.00;1.00;;;;;;5096344;28;20185;-64
2024/01/08 11:31:58;;;;;;;11.27;10.23;;;0.00;99.90;;;;;;5097788;28;20205;-64
2024/01/08 11:34:30;;;;;;;11.60;10.43;;;0.00;1.00;;;;;;5097351;28;20212;-64
2024/01/08 11:37:31;;;;;;;11.20;10.27;;;0.10;99.90;;;;;;5097016;28;20197;-64
2024/01/08 11:40:06;;;;;;;11.17;10.27;;;-0.10;1.00;;;;;;5075404;28;20180;-64
2024/01/08 11:42:32;;;;;;;11.43;10.23;;;-0.20;99.90;;;;;;5096839;28;20153;-63
2024/01/08 11:45:02;;;;;;;11.63;10.60;;;-0.20;99.90;;;;;;5097017;28;20662;-63
2024/01/08 11:47:30;;;;;;;11.73;10.67;;;-0.30;99.90;;;;;;5097112;28;20197;-63
2024/01/08 11:49:56;;;;;;;11.50;10.63;;;-0.40;99.90;;;;;;5096623;28;20184;-65
2024/01/08 11:52:23;;;;;;;11.47;10.63;;;-0.30;99.90;;;;;;5096706;28;20556;-65
2024/01/08 11:54:49;;;;;;;11.83;10.73;;;-0.30;1.00;;;;;;5097047;28;20204;-64
2024/01/08 11:57:19;;;;;;;11.43;10.50;;;-0.30;99.90;;;;;;5095644;28;20205;-65
2024/01/08 11:59:45;;;;;;;11.47;10.43;;;-0.30;1.00;;;;;;5096430;28;20249;-64
2024/01/08 12:02:23;;;;;;;12.40;11.33;;;-0.30;1.00;;;;;;5096069;28;20180;-63
2024/01/08 12:04:52;;;;;;;11.57;10.57;;;-0.30;1.00;;;;;;5096580;28;20190;-64
2024/01/08 12:07:18;;;;;;;12.33;11.23;;;-0.20;1.00;;;;;;5096436;28;20201;-64
2024/01/08 12:09:44;;;;;;;11.83;10.70;;;-0.20;99.90;;;;;;5096301;28;20209;-64
2024/01/08 12:12:10;;;;;;;11.00;10.13;;;-0.20;26.00;;;;;;5096114;28;20178;-64
2024/01/08 12:14:36;;;;;;;12.17;10.90;;;-0.10;1.00;;;;;;5096108;28;20237;-64
2024/01/08 12:17:03;;;;;;;11.90;10.87;;;-0.10;1.00;;;;;;5096469;28;20197;-65
2024/01/08 12:19:36;;;;;;;12.43;11.13;;;0.20;1.00;;;;;;5096683;28;20175;-64
2024/01/08 12:22:05;;;;;;;11.33;10.33;;;0.20;99.90;;;;;;5096242;28;20185;-64
2024/01/08 12:24:31;;;;;;;11.30;10.20;;;0.10;99.90;;;;;;5096292;28;20184;-65
2024/01/08 12:27:04;;;;;;;11.60;10.23;;;0.00;1.00;;;;;;5095583;28;20236;-65
2024/01/08 12:29:31;;;;;;;11.73;10.70;;;-0.20;99.90;;;;;;5095996;28;20276;-64
2024/01/08 12:32:00;;;;;;;11.10;10.20;;;-0.30;99.90;;;;;;5096087;28;20657;-65
2024/01/08 12:34:33;;;;;;;12.23;11.03;;;-0.30;99.90;;;;;;5095788;28;20225;-65